sensor_id;sensor_type;location;lat;lon;timestamp;P1;durP1;ratioP1;P2;durP2;ratioP2
18174;SDS011;9212;50.894;16.714;2022-09-17T00:01:09;1.37;;;1.27;;
18174;SDS011;9212;50.894;16.714;2022-09-17T00:03:41;1.57;;;1.27;;
18174;SDS011;9212;50.894;16.714;2022-09-17T00:06:10;1.60;;;1.20;;
18174;SDS011;9212;50.894;16.714;2022-09-17T00:08:39;1.93;;;1.73;;
18174;SDS011;9212;50.894;16.714;2022-09-17T00:11:07;1.63;;;1.53;;
18174;SDS011;9212;50.894;16.714;2022-09-17T00:13:36;1.47;;;1.37;;
18174;SDS011;9212;50.894;16.714;2022-09-17T00:16:03;1.53;;;1.20;;
18174;SDS011;9212;50.894;16.714;2022-09-17T00:18:31;3.07;;;1.20;;
18174;SDS011;9212;50.894;16.714;2022-09-17T00:21:00;1.50;;;1.20;;
18174;SDS011;9212;50.894;16.714;2022-09-17T00:23:28;1.53;;;1.10;;
18174;SDS011;9212;50.894;16.714;2022-09-17T00:25:56;2.03;;;1.50;;
18174;SDS011;9212;50.894;16.714;2022-09-17T00:28:24;3.43;;;1.20;;
18174;SDS011;9212;50.894;16.714;2022-09-17T00:30:51;1.43;;;1.33;;
18174;SDS011;9212;50.894;16.714;2022-09-17T00:33:18;4.13;;;1.20;;
18174;SDS011;9212;50.894;16.714;2022-09-17T00:35:45;1.33;;;1.20;;
18174;SDS011;9212;50.894;16.714;2022-09-17T00:38:23;1.30;;;1.20;;
18174;SDS011;9212;50.894;16.714;2022-09-17T00:40:50;1.33;;;1.30;;
18174;SDS011;9212;50.894;16.714;2022-09-17T00:43:31;1.37;;;1.27;;
18174;SDS011;9212;50.894;16.714;2022-09-17T00:46:00;1.77;;;1.20;;
18174;SDS011;9212;50.894;16.714;2022-09-17T00:48:27;2.57;;;1.47;;
18174;SDS011;9212;50.894;16.714;2022-09-17T00:50:54;2.33;;;1.43;;
18174;SDS011;9212;50.894;16.714;2022-09-17T00:53:25;2.67;;;1.37;;
18174;SDS011;9212;50.894;16.714;2022-09-17T00:55:56;1.50;;;1.40;;
18174;SDS011;9212;50.894;16.714;2022-09-17T00:58:26;3.27;;;1.70;;
18174;SDS011;9212;50.894;16.714;2022-09-17T01:00:54;1.37;;;1.20;;
18174;SDS011;9212;50.894;16.714;2022-09-17T01:03:21;1.63;;;1.50;;
18174;SDS011;9212;50.894;16.714;2022-09-17T01:05:51;4.23;;;2.23;;
18174;SDS011;9212;50.894;16.714;2022-09-17T01:08:32;1.63;;;1.50;;
18174;SDS011;9212;50.894;16.714;2022-09-17T01:11:15;3.23;;;1.63;;
18174;SDS011;9212;50.894;16.714;2022-09-17T01:13:56;2.03;;;1.73;;
18174;SDS011;9212;50.894;16.714;2022-09-17T01:16:35;3.33;;;1.67;;
18174;SDS011;9212;50.894;16.714;2022-09-17T01:19:15;1.57;;;1.20;;
18174;SDS011;9212;50.894;16.714;2022-09-17T01:21:56;2.50;;;1.77;;
18174;SDS011;9212;50.894;16.714;2022-09-17T01:24:31;1.90;;;1.80;;
18174;SDS011;9212;50.894;16.714;2022-09-17T01:30:14;2.87;;;1.43;;
18174;SDS011;9212;50.894;16.714;2022-09-17T01:33:03;1.93;;;1.63;;
18174;SDS011;9212;50.894;16.714;2022-09-17T01:35:41;4.70;;;2.20;;
18174;SDS011;9212;50.894;16.714;2022-09-17T01:38:18;1.93;;;1.80;;
18174;SDS011;9212;50.894;16.714;2022-09-17T01:40:52;2.87;;;1.63;;
18174;SDS011;9212;50.894;16.714;2022-09-17T01:43:29;3.90;;;1.67;;
18174;SDS011;9212;50.894;16.714;2022-09-17T01:46:00;3.00;;;1.50;;
18174;SDS011;9212;50.894;16.714;2022-09-17T01:48:34;3.10;;;2.00;;
18174;SDS011;9212;50.894;16.714;2022-09-17T01:51:05;3.20;;;1.90;;
18174;SDS011;9212;50.894;16.714;2022-09-17T01:53:37;1.63;;;1.47;;
18174;SDS011;9212;50.894;16.714;2022-09-17T01:56:08;2.93;;;2.10;;
18174;SDS011;9212;50.894;16.714;2022-09-17T01:58:41;2.27;;;1.80;;
18174;SDS011;9212;50.894;16.714;2022-09-17T02:01:11;2.50;;;1.70;;
18174;SDS011;9212;50.894;16.714;2022-09-17T02:03:43;1.70;;;1.60;;
18174;SDS011;9212;50.894;16.714;2022-09-17T02:06:15;4.30;;;1.97;;
18174;SDS011;9212;50.894;16.714;2022-09-17T02:08:47;3.47;;;1.90;;
18174;SDS011;9212;50.894;16.714;2022-09-17T02:11:17;2.37;;;1.60;;
18174;SDS011;9212;50.894;16.714;2022-09-17T02:13:45;1.63;;;1.53;;
18174;SDS011;9212;50.894;16.714;2022-09-17T02:16:21;1.83;;;1.60;;
18174;SDS011;9212;50.894;16.714;2022-09-17T02:18:54;2.83;;;2.30;;
18174;SDS011;9212;50.894;16.714;2022-09-17T02:21:28;5.03;;;1.80;;
18174;SDS011;9212;50.894;16.714;2022-09-17T02:24:00;6.43;;;1.70;;
18174;SDS011;9212;50.894;16.714;2022-09-17T02:26:34;2.57;;;1.97;;
18174;SDS011;9212;50.894;16.714;2022-09-17T02:29:09;4.27;;;1.60;;
18174;SDS011;9212;50.894;16.714;2022-09-17T02:31:40;2.17;;;1.73;;
18174;SDS011;9212;50.894;16.714;2022-09-17T02:34:09;2.20;;;2.00;;
18174;SDS011;9212;50.894;16.714;2022-09-17T02:36:37;3.70;;;1.80;;
18174;SDS011;9212;50.894;16.714;2022-09-17T02:39:04;5.97;;;2.40;;
18174;SDS011;9212;50.894;16.714;2022-09-17T02:41:35;2.73;;;2.00;;
18174;SDS011;9212;50.894;16.714;2022-09-17T02:44:12;4.30;;;2.17;;
18174;SDS011;9212;50.894;16.714;2022-09-17T02:47:00;2.83;;;2.17;;
18174;SDS011;9212;50.894;16.714;2022-09-17T02:50:05;4.90;;;2.50;;
18174;SDS011;9212;50.894;16.714;2022-09-17T02:52:47;3.67;;;1.97;;
18174;SDS011;9212;50.894;16.714;2022-09-17T02:55:23;2.80;;;2.50;;
18174;SDS011;9212;50.894;16.714;2022-09-17T02:57:57;6.07;;;2.70;;
18174;SDS011;9212;50.894;16.714;2022-09-17T03:00:31;2.87;;;2.40;;
18174;SDS011;9212;50.894;16.714;2022-09-17T03:03:00;4.10;;;2.57;;
18174;SDS011;9212;50.894;16.714;2022-09-17T03:05:32;2.37;;;2.10;;
18174;SDS011;9212;50.894;16.714;2022-09-17T03:08:01;2.37;;;2.10;;
18174;SDS011;9212;50.894;16.714;2022-09-17T03:10:29;2.93;;;2.13;;
18174;SDS011;9212;50.894;16.714;2022-09-17T03:12:57;3.23;;;2.37;;
18174;SDS011;9212;50.894;16.714;2022-09-17T03:15:25;4.37;;;2.70;;
18174;SDS011;9212;50.894;16.714;2022-09-17T03:17:58;3.90;;;2.13;;
18174;SDS011;9212;50.894;16.714;2022-09-17T03:20:28;2.30;;;2.10;;
18174;SDS011;9212;50.894;16.714;2022-09-17T03:22:56;2.37;;;2.17;;
18174;SDS011;9212;50.894;16.714;2022-09-17T03:25:23;2.77;;;2.33;;
18174;SDS011;9212;50.894;16.714;2022-09-17T03:27:50;2.50;;;2.13;;
18174;SDS011;9212;50.894;16.714;2022-09-17T03:30:17;2.27;;;2.03;;
18174;SDS011;9212;50.894;16.714;2022-09-17T03:32:45;3.00;;;2.33;;
18174;SDS011;9212;50.894;16.714;2022-09-17T03:35:12;2.67;;;2.23;;
18174;SDS011;9212;50.894;16.714;2022-09-17T03:37:39;2.50;;;2.30;;
18174;SDS011;9212;50.894;16.714;2022-09-17T03:40:08;1.97;;;1.87;;
18174;SDS011;9212;50.894;16.714;2022-09-17T03:42:35;5.03;;;2.10;;
18174;SDS011;9212;50.894;16.714;2022-09-17T03:45:02;2.20;;;1.90;;
18174;SDS011;9212;50.894;16.714;2022-09-17T03:47:30;2.20;;;2.10;;
18174;SDS011;9212;50.894;16.714;2022-09-17T03:49:57;4.40;;;2.20;;
18174;SDS011;9212;50.894;16.714;2022-09-17T03:52:24;4.10;;;2.47;;
18174;SDS011;9212;50.894;16.714;2022-09-17T03:54:51;3.27;;;2.47;;
18174;SDS011;9212;50.894;16.714;2022-09-17T03:57:19;3.87;;;2.20;;
18174;SDS011;9212;50.894;16.714;2022-09-17T03:59:47;2.30;;;2.10;;
18174;SDS011;9212;50.894;16.714;2022-09-17T04:02:14;2.50;;;2.30;;
18174;SDS011;9212;50.894;16.714;2022-09-17T04:04:41;2.50;;;2.30;;
18174;SDS011;9212;50.894;16.714;2022-09-17T04:07:08;3.50;;;2.60;;
18174;SDS011;9212;50.894;16.714;2022-09-17T04:09:35;4.93;;;2.23;;
18174;SDS011;9212;50.894;16.714;2022-09-17T04:12:02;4.33;;;2.40;;
18174;SDS011;9212;50.894;16.714;2022-09-17T04:14:31;2.93;;;2.30;;
18174;SDS011;9212;50.894;16.714;2022-09-17T04:16:58;2.43;;;1.93;;
18174;SDS011;9212;50.894;16.714;2022-09-17T04:19:25;2.40;;;2.20;;
18174;SDS011;9212;50.894;16.714;2022-09-17T04:21:52;5.77;;;2.53;;
18174;SDS011;9212;50.894;16.714;2022-09-17T04:24:19;2.33;;;2.17;;
18174;SDS011;9212;50.894;16.714;2022-09-17T04:26:46;2.77;;;2.50;;
18174;SDS011;9212;50.894;16.714;2022-09-17T04:29:13;2.40;;;2.20;;
18174;SDS011;9212;50.894;16.714;2022-09-17T04:31:41;2.50;;;2.30;;
18174;SDS011;9212;50.894;16.714;2022-09-17T04:34:08;2.53;;;1.57;;
18174;SDS011;9212;50.894;16.714;2022-09-17T04:36:35;2.60;;;2.20;;
18174;SDS011;9212;50.894;16.714;2022-09-17T04:39:02;6.33;;;2.03;;
18174;SDS011;9212;50.894;16.714;2022-09-17T04:41:29;2.73;;;2.50;;
18174;SDS011;9212;50.894;16.714;2022-09-17T04:43:56;5.17;;;2.73;;
18174;SDS011;9212;50.894;16.714;2022-09-17T04:46:23;8.03;;;2.47;;
18174;SDS011;9212;50.894;16.714;2022-09-17T04:48:52;2.60;;;2.00;;
18174;SDS011;9212;50.894;16.714;2022-09-17T04:51:18;2.97;;;2.60;;
18174;SDS011;9212;50.894;16.714;2022-09-17T04:53:46;3.27;;;2.23;;
18174;SDS011;9212;50.894;16.714;2022-09-17T04:56:13;2.73;;;2.50;;
18174;SDS011;9212;50.894;16.714;2022-09-17T04:58:40;5.03;;;2.53;;
18174;SDS011;9212;50.894;16.714;2022-09-17T05:01:07;5.47;;;3.07;;
18174;SDS011;9212;50.894;16.714;2022-09-17T05:03:34;3.53;;;2.17;;
18174;SDS011;9212;50.894;16.714;2022-09-17T05:06:02;2.83;;;2.33;;
18174;SDS011;9212;50.894;16.714;2022-09-17T05:08:29;2.20;;;1.97;;
18174;SDS011;9212;50.894;16.714;2022-09-17T05:10:56;5.37;;;2.40;;
18174;SDS011;9212;50.894;16.714;2022-09-17T05:13:23;3.53;;;2.40;;
18174;SDS011;9212;50.894;16.714;2022-09-17T05:15:52;2.30;;;2.10;;
18174;SDS011;9212;50.894;16.714;2022-09-17T05:18:20;2.17;;;2.00;;
18174;SDS011;9212;50.894;16.714;2022-09-17T05:20:47;3.40;;;2.20;;
18174;SDS011;9212;50.894;16.714;2022-09-17T05:23:16;3.87;;;2.17;;
18174;SDS011;9212;50.894;16.714;2022-09-17T05:25:44;2.63;;;1.93;;
18174;SDS011;9212;50.894;16.714;2022-09-17T05:28:11;3.77;;;1.60;;
18174;SDS011;9212;50.894;16.714;2022-09-17T05:30:38;4.73;;;2.20;;
18174;SDS011;9212;50.894;16.714;2022-09-17T05:33:06;2.60;;;1.90;;
18174;SDS011;9212;50.894;16.714;2022-09-17T05:35:33;2.43;;;2.23;;
18174;SDS011;9212;50.894;16.714;2022-09-17T05:38:01;2.67;;;2.13;;
18174;SDS011;9212;50.894;16.714;2022-09-17T05:40:31;5.13;;;2.13;;
18174;SDS011;9212;50.894;16.714;2022-09-17T05:42:58;5.77;;;2.33;;
18174;SDS011;9212;50.894;16.714;2022-09-17T05:45:26;3.77;;;2.07;;
18174;SDS011;9212;50.894;16.714;2022-09-17T05:47:53;3.23;;;2.10;;
18174;SDS011;9212;50.894;16.714;2022-09-17T05:50:21;5.13;;;2.10;;
18174;SDS011;9212;50.894;16.714;2022-09-17T05:52:48;2.20;;;1.93;;
18174;SDS011;9212;50.894;16.714;2022-09-17T05:55:16;5.10;;;2.30;;
18174;SDS011;9212;50.894;16.714;2022-09-17T05:57:44;3.13;;;1.97;;
18174;SDS011;9212;50.894;16.714;2022-09-17T06:00:12;4.90;;;2.60;;
18174;SDS011;9212;50.894;16.714;2022-09-17T06:02:39;5.20;;;2.00;;
18174;SDS011;9212;50.894;16.714;2022-09-17T06:05:07;2.90;;;1.90;;
18174;SDS011;9212;50.894;16.714;2022-09-17T06:07:34;2.87;;;2.20;;
18174;SDS011;9212;50.894;16.714;2022-09-17T06:10:01;3.43;;;2.07;;
18174;SDS011;9212;50.894;16.714;2022-09-17T06:12:29;5.43;;;2.00;;
18174;SDS011;9212;50.894;16.714;2022-09-17T06:14:57;6.43;;;2.00;;
18174;SDS011;9212;50.894;16.714;2022-09-17T06:17:24;1.97;;;1.87;;
18174;SDS011;9212;50.894;16.714;2022-09-17T06:19:51;2.90;;;1.80;;
18174;SDS011;9212;50.894;16.714;2022-09-17T06:22:19;3.40;;;1.90;;
18174;SDS011;9212;50.894;16.714;2022-09-17T06:24:46;3.63;;;2.10;;
18174;SDS011;9212;50.894;16.714;2022-09-17T06:27:13;4.27;;;1.83;;
18174;SDS011;9212;50.894;16.714;2022-09-17T06:29:40;1.80;;;1.70;;
18174;SDS011;9212;50.894;16.714;2022-09-17T06:32:09;2.77;;;2.37;;
18174;SDS011;9212;50.894;16.714;2022-09-17T06:34:37;3.93;;;2.50;;
18174;SDS011;9212;50.894;16.714;2022-09-17T06:37:04;2.13;;;1.80;;
18174;SDS011;9212;50.894;16.714;2022-09-17T06:39:31;2.37;;;2.13;;
18174;SDS011;9212;50.894;16.714;2022-09-17T06:41:59;1.97;;;1.87;;
18174;SDS011;9212;50.894;16.714;2022-09-17T06:44:26;4.10;;;2.20;;
18174;SDS011;9212;50.894;16.714;2022-09-17T06:46:55;3.23;;;2.30;;
18174;SDS011;9212;50.894;16.714;2022-09-17T06:49:24;5.40;;;2.53;;
18174;SDS011;9212;50.894;16.714;2022-09-17T06:51:52;8.60;;;3.10;;
18174;SDS011;9212;50.894;16.714;2022-09-17T06:54:20;3.27;;;2.27;;
18174;SDS011;9212;50.894;16.714;2022-09-17T06:56:47;7.17;;;2.60;;
18174;SDS011;9212;50.894;16.714;2022-09-17T06:59:15;2.63;;;2.00;;
18174;SDS011;9212;50.894;16.714;2022-09-17T07:01:42;3.17;;;2.03;;
18174;SDS011;9212;50.894;16.714;2022-09-17T07:04:09;4.10;;;2.07;;
18174;SDS011;9212;50.894;16.714;2022-09-17T07:06:38;5.83;;;2.00;;
18174;SDS011;9212;50.894;16.714;2022-09-17T07:09:04;6.40;;;2.23;;
18174;SDS011;9212;50.894;16.714;2022-09-17T07:11:33;5.17;;;2.57;;
18174;SDS011;9212;50.894;16.714;2022-09-17T07:14:00;3.77;;;2.23;;
18174;SDS011;9212;50.894;16.714;2022-09-17T07:16:28;6.67;;;2.33;;
18174;SDS011;9212;50.894;16.714;2022-09-17T07:18:57;4.20;;;2.27;;
18174;SDS011;9212;50.894;16.714;2022-09-17T07:21:24;4.80;;;1.80;;
18174;SDS011;9212;50.894;16.714;2022-09-17T07:23:52;3.50;;;2.00;;
18174;SDS011;9212;50.894;16.714;2022-09-17T07:26:19;3.93;;;2.20;;
18174;SDS011;9212;50.894;16.714;2022-09-17T07:28:46;5.23;;;2.17;;
18174;SDS011;9212;50.894;16.714;2022-09-17T07:31:14;5.33;;;1.93;;
18174;SDS011;9212;50.894;16.714;2022-09-17T07:33:41;5.63;;;2.03;;
18174;SDS011;9212;50.894;16.714;2022-09-17T07:36:09;8.07;;;2.67;;
18174;SDS011;9212;50.894;16.714;2022-09-17T07:38:38;4.47;;;1.87;;
18174;SDS011;9212;50.894;16.714;2022-09-17T07:41:08;3.97;;;2.37;;
18174;SDS011;9212;50.894;16.714;2022-09-17T07:43:37;7.33;;;2.20;;
18174;SDS011;9212;50.894;16.714;2022-09-17T07:46:04;5.97;;;2.00;;
18174;SDS011;9212;50.894;16.714;2022-09-17T07:48:32;3.67;;;2.33;;
18174;SDS011;9212;50.894;16.714;2022-09-17T07:50:59;6.30;;;2.10;;
18174;SDS011;9212;50.894;16.714;2022-09-17T07:53:26;3.47;;;2.33;;
18174;SDS011;9212;50.894;16.714;2022-09-17T07:55:54;3.67;;;2.20;;
18174;SDS011;9212;50.894;16.714;2022-09-17T07:58:26;15.30;;;2.73;;
18174;SDS011;9212;50.894;16.714;2022-09-17T08:00:58;6.30;;;2.10;;
18174;SDS011;9212;50.894;16.714;2022-09-17T08:03:26;2.27;;;1.90;;
18174;SDS011;9212;50.894;16.714;2022-09-17T08:05:53;3.70;;;1.87;;
18174;SDS011;9212;50.894;16.714;2022-09-17T08:08:20;3.80;;;1.97;;
18174;SDS011;9212;50.894;16.714;2022-09-17T08:10:47;2.03;;;1.70;;
18174;SDS011;9212;50.894;16.714;2022-09-17T08:13:14;3.40;;;1.83;;
18174;SDS011;9212;50.894;16.714;2022-09-17T08:15:43;3.50;;;2.03;;
18174;SDS011;9212;50.894;16.714;2022-09-17T08:18:10;5.40;;;1.97;;
18174;SDS011;9212;50.894;16.714;2022-09-17T08:20:37;4.53;;;1.70;;
18174;SDS011;9212;50.894;16.714;2022-09-17T08:23:05;5.63;;;2.00;;
18174;SDS011;9212;50.894;16.714;2022-09-17T08:25:32;5.10;;;2.13;;
18174;SDS011;9212;50.894;16.714;2022-09-17T08:27:59;2.50;;;1.50;;
18174;SDS011;9212;50.894;16.714;2022-09-17T08:30:26;3.10;;;1.70;;
18174;SDS011;9212;50.894;16.714;2022-09-17T08:32:56;4.43;;;1.63;;
18174;SDS011;9212;50.894;16.714;2022-09-17T08:35:23;1.53;;;1.43;;
18174;SDS011;9212;50.894;16.714;2022-09-17T08:37:53;1.40;;;1.30;;
18174;SDS011;9212;50.894;16.714;2022-09-17T08:40:20;3.67;;;1.93;;
18174;SDS011;9212;50.894;16.714;2022-09-17T08:42:50;1.73;;;1.60;;
18174;SDS011;9212;50.894;16.714;2022-09-17T08:45:23;5.13;;;1.67;;
18174;SDS011;9212;50.894;16.714;2022-09-17T08:47:50;5.37;;;2.10;;
18174;SDS011;9212;50.894;16.714;2022-09-17T08:50:24;3.83;;;1.57;;
18174;SDS011;9212;50.894;16.714;2022-09-17T08:52:57;2.83;;;2.33;;
18174;SDS011;9212;50.894;16.714;2022-09-17T08:55:36;2.83;;;1.80;;
18174;SDS011;9212;50.894;16.714;2022-09-17T08:58:19;3.40;;;2.00;;
18174;SDS011;9212;50.894;16.714;2022-09-17T09:01:01;3.03;;;2.03;;
18174;SDS011;9212;50.894;16.714;2022-09-17T09:03:37;8.10;;;2.07;;
18174;SDS011;9212;50.894;16.714;2022-09-17T09:06:39;3.93;;;2.27;;
18174;SDS011;9212;50.894;16.714;2022-09-17T09:09:12;5.03;;;1.70;;
18174;SDS011;9212;50.894;16.714;2022-09-17T09:11:40;1.57;;;1.47;;
18174;SDS011;9212;50.894;16.714;2022-09-17T09:14:10;1.70;;;1.60;;
18174;SDS011;9212;50.894;16.714;2022-09-17T09:16:42;2.90;;;1.97;;
18174;SDS011;9212;50.894;16.714;2022-09-17T09:19:15;2.40;;;1.77;;
18174;SDS011;9212;50.894;16.714;2022-09-17T09:21:50;3.13;;;1.67;;
18174;SDS011;9212;50.894;16.714;2022-09-17T09:24:29;2.30;;;2.10;;
18174;SDS011;9212;50.894;16.714;2022-09-17T09:27:04;2.67;;;2.00;;
18174;SDS011;9212;50.894;16.714;2022-09-17T09:29:41;2.40;;;1.93;;
18174;SDS011;9212;50.894;16.714;2022-09-17T09:32:19;2.93;;;2.00;;
18174;SDS011;9212;50.894;16.714;2022-09-17T09:34:59;3.90;;;2.30;;
18174;SDS011;9212;50.894;16.714;2022-09-17T09:37:30;3.33;;;2.10;;
18174;SDS011;9212;50.894;16.714;2022-09-17T09:40:00;2.63;;;2.10;;
18174;SDS011;9212;50.894;16.714;2022-09-17T09:42:33;5.27;;;3.00;;
18174;SDS011;9212;50.894;16.714;2022-09-17T09:45:05;2.77;;;2.40;;
18174;SDS011;9212;50.894;16.714;2022-09-17T09:47:43;2.80;;;2.33;;
18174;SDS011;9212;50.894;16.714;2022-09-17T09:50:20;2.50;;;2.30;;
18174;SDS011;9212;50.894;16.714;2022-09-17T09:53:05;3.07;;;2.10;;
18174;SDS011;9212;50.894;16.714;2022-09-17T09:55:45;3.13;;;2.50;;
18174;SDS011;9212;50.894;16.714;2022-09-17T09:58:23;3.33;;;2.50;;
18174;SDS011;9212;50.894;16.714;2022-09-17T10:00:57;7.13;;;2.40;;
18174;SDS011;9212;50.894;16.714;2022-09-17T10:03:25;6.17;;;2.07;;
18174;SDS011;9212;50.894;16.714;2022-09-17T10:05:56;3.53;;;2.73;;
18174;SDS011;9212;50.894;16.714;2022-09-17T10:08:26;2.73;;;1.97;;
18174;SDS011;9212;50.894;16.714;2022-09-17T10:10:58;2.77;;;2.30;;
18174;SDS011;9212;50.894;16.714;2022-09-17T10:13:28;2.10;;;2.00;;
18174;SDS011;9212;50.894;16.714;2022-09-17T10:15:56;3.63;;;2.20;;
18174;SDS011;9212;50.894;16.714;2022-09-17T10:18:39;3.57;;;2.07;;
18174;SDS011;9212;50.894;16.714;2022-09-17T10:21:06;2.40;;;2.17;;
18174;SDS011;9212;50.894;16.714;2022-09-17T10:23:46;2.37;;;2.00;;
18174;SDS011;9212;50.894;16.714;2022-09-17T10:26:21;2.47;;;1.90;;
18174;SDS011;9212;50.894;16.714;2022-09-17T10:28:50;1.80;;;1.70;;
18174;SDS011;9212;50.894;16.714;2022-09-17T10:31:19;2.20;;;1.50;;
18174;SDS011;9212;50.894;16.714;2022-09-17T10:33:51;1.83;;;1.50;;
18174;SDS011;9212;50.894;16.714;2022-09-17T10:36:34;1.93;;;1.57;;
18174;SDS011;9212;50.894;16.714;2022-09-17T10:41:55;1.57;;;1.37;;
18174;SDS011;9212;50.894;16.714;2022-09-17T10:44:24;4.93;;;1.60;;
18174;SDS011;9212;50.894;16.714;2022-09-17T10:46:52;2.27;;;1.13;;
18174;SDS011;9212;50.894;16.714;2022-09-17T10:49:22;1.10;;;1.10;;
18174;SDS011;9212;50.894;16.714;2022-09-17T10:52:06;1.97;;;1.20;;
18174;SDS011;9212;50.894;16.714;2022-09-17T10:57:51;2.08;;;1.10;;
18174;SDS011;9212;50.894;16.714;2022-09-17T11:00:41;1.30;;;1.20;;
18174;SDS011;9212;50.894;16.714;2022-09-17T11:09:21;1.13;;;1.00;;
18174;SDS011;9212;50.894;16.714;2022-09-17T11:11:58;1.83;;;1.00;;
18174;SDS011;9212;50.894;16.714;2022-09-17T11:14:44;1.20;;;1.20;;
18174;SDS011;9212;50.894;16.714;2022-09-17T11:17:24;1.10;;;1.10;;
18174;SDS011;9212;50.894;16.714;2022-09-17T11:20:01;1.88;;;1.08;;
18174;SDS011;9212;50.894;16.714;2022-09-17T11:22:34;6.80;;;1.77;;
18174;SDS011;9212;50.894;16.714;2022-09-17T11:25:14;1.25;;;1.25;;
18174;SDS011;9212;50.894;16.714;2022-09-17T11:27:55;1.70;;;1.60;;
18174;SDS011;9212;50.894;16.714;2022-09-17T11:30:32;2.25;;;1.58;;
18174;SDS011;9212;50.894;16.714;2022-09-17T11:33:19;1.50;;;1.40;;
18174;SDS011;9212;50.894;16.714;2022-09-17T11:36:03;2.05;;;1.50;;
18174;SDS011;9212;50.894;16.714;2022-09-17T11:38:37;2.80;;;1.63;;
18174;SDS011;9212;50.894;16.714;2022-09-17T11:41:08;1.70;;;1.60;;
18174;SDS011;9212;50.894;16.714;2022-09-17T11:43:40;2.78;;;1.48;;
18174;SDS011;9212;50.894;16.714;2022-09-17T11:46:15;1.50;;;1.40;;
18174;SDS011;9212;50.894;16.714;2022-09-17T11:48:46;1.75;;;1.65;;
18174;SDS011;9212;50.894;16.714;2022-09-17T11:51:20;1.90;;;1.77;;
18174;SDS011;9212;50.894;16.714;2022-09-17T11:53:52;2.03;;;1.60;;
18174;SDS011;9212;50.894;16.714;2022-09-17T11:56:24;2.33;;;1.50;;
18174;SDS011;9212;50.894;16.714;2022-09-17T11:58:55;1.60;;;1.50;;
18174;SDS011;9212;50.894;16.714;2022-09-17T12:01:29;2.63;;;1.67;;
18174;SDS011;9212;50.894;16.714;2022-09-17T12:04:02;2.38;;;1.70;;
18174;SDS011;9212;50.894;16.714;2022-09-17T12:06:42;1.30;;;1.30;;
18174;SDS011;9212;50.894;16.714;2022-09-17T12:09:14;1.60;;;1.50;;
18174;SDS011;9212;50.894;16.714;2022-09-17T12:11:46;1.27;;;1.17;;
18174;SDS011;9212;50.894;16.714;2022-09-17T12:14:21;3.20;;;0.70;;
18174;SDS011;9212;50.894;16.714;2022-09-17T12:16:54;2.20;;;0.88;;
18174;SDS011;9212;50.894;16.714;2022-09-17T12:19:24;1.25;;;0.80;;
18174;SDS011;9212;50.894;16.714;2022-09-17T12:21:57;1.85;;;1.00;;
18174;SDS011;9212;50.894;16.714;2022-09-17T12:24:29;1.92;;;1.20;;
18174;SDS011;9212;50.894;16.714;2022-09-17T12:27:08;6.07;;;1.73;;
18174;SDS011;9212;50.894;16.714;2022-09-17T12:32:40;1.73;;;1.00;;
18174;SDS011;9212;50.894;16.714;2022-09-17T12:35:30;1.58;;;1.17;;
18174;SDS011;9212;50.894;16.714;2022-09-17T12:38:09;3.15;;;1.33;;
18174;SDS011;9212;50.894;16.714;2022-09-17T12:40:49;2.03;;;1.50;;
18174;SDS011;9212;50.894;16.714;2022-09-17T12:43:31;1.15;;;1.13;;
18174;SDS011;9212;50.894;16.714;2022-09-17T12:46:12;1.67;;;1.10;;
18174;SDS011;9212;50.894;16.714;2022-09-17T12:51:51;3.80;;;1.42;;
18174;SDS011;9212;50.894;16.714;2022-09-17T12:54:24;2.08;;;1.40;;
18174;SDS011;9212;50.894;16.714;2022-09-17T12:57:23;1.17;;;0.95;;
18174;SDS011;9212;50.894;16.714;2022-09-17T12:59:58;0.98;;;0.90;;
18174;SDS011;9212;50.894;16.714;2022-09-17T13:02:29;2.15;;;1.08;;
18174;SDS011;9212;50.894;16.714;2022-09-17T13:08:26;3.78;;;1.10;;
18174;SDS011;9212;50.894;16.714;2022-09-17T13:11:28;4.53;;;1.27;;
18174;SDS011;9212;50.894;16.714;2022-09-17T13:14:16;1.13;;;1.00;;
18174;SDS011;9212;50.894;16.714;2022-09-17T13:16:51;1.58;;;1.08;;
18174;SDS011;9212;50.894;16.714;2022-09-17T13:19:27;1.48;;;1.23;;
18174;SDS011;9212;50.894;16.714;2022-09-17T13:22:01;3.92;;;1.13;;
18174;SDS011;9212;50.894;16.714;2022-09-17T13:24:31;1.70;;;1.10;;
18174;SDS011;9212;50.894;16.714;2022-09-17T13:26:59;2.03;;;0.85;;
18174;SDS011;9212;50.894;16.714;2022-09-17T13:38:15;0.82;;;0.82;;
18174;SDS011;9212;50.894;16.714;2022-09-17T13:40:45;2.90;;;0.88;;
18174;SDS011;9212;50.894;16.714;2022-09-17T13:43:14;1.02;;;0.80;;
18174;SDS011;9212;50.894;16.714;2022-09-17T13:48:35;1.02;;;0.90;;
18174;SDS011;9212;50.894;16.714;2022-09-17T13:54:18;1.77;;;1.10;;
18174;SDS011;9212;50.894;16.714;2022-09-17T13:57:02;2.72;;;0.95;;
18174;SDS011;9212;50.894;16.714;2022-09-17T13:59:33;2.05;;;1.15;;
18174;SDS011;9212;50.894;16.714;2022-09-17T14:08:23;1.70;;;0.90;;
18174;SDS011;9212;50.894;16.714;2022-09-17T14:11:00;1.65;;;1.00;;
18174;SDS011;9212;50.894;16.714;2022-09-17T14:16:34;1.75;;;1.00;;
18174;SDS011;9212;50.894;16.714;2022-09-17T14:19:18;0.95;;;0.82;;
18174;SDS011;9212;50.894;16.714;2022-09-17T14:21:56;1.70;;;0.88;;
18174;SDS011;9212;50.894;16.714;2022-09-17T14:24:34;2.25;;;1.10;;
18174;SDS011;9212;50.894;16.714;2022-09-17T14:27:12;1.77;;;0.93;;
18174;SDS011;9212;50.894;16.714;2022-09-17T14:29:48;2.90;;;1.15;;
18174;SDS011;9212;50.894;16.714;2022-09-17T14:32:26;0.80;;;0.80;;
18174;SDS011;9212;50.894;16.714;2022-09-17T14:34:56;1.83;;;1.00;;
18174;SDS011;9212;50.894;16.714;2022-09-17T14:37:24;2.53;;;1.15;;
18174;SDS011;9212;50.894;16.714;2022-09-17T14:39:52;1.98;;;0.73;;
18174;SDS011;9212;50.894;16.714;2022-09-17T14:42:21;1.40;;;1.30;;
18174;SDS011;9212;50.894;16.714;2022-09-17T14:44:55;1.70;;;1.17;;
18174;SDS011;9212;50.894;16.714;2022-09-17T14:47:24;2.83;;;1.30;;
18174;SDS011;9212;50.894;16.714;2022-09-17T14:49:52;3.10;;;1.15;;
18174;SDS011;9212;50.894;16.714;2022-09-17T14:52:23;3.47;;;1.25;;
18174;SDS011;9212;50.894;16.714;2022-09-17T14:55:08;2.33;;;1.50;;
18174;SDS011;9212;50.894;16.714;2022-09-17T14:57:37;3.72;;;1.40;;
18174;SDS011;9212;50.894;16.714;2022-09-17T15:00:05;1.30;;;1.20;;
18174;SDS011;9212;50.894;16.714;2022-09-17T15:02:41;5.10;;;1.42;;
18174;SDS011;9212;50.894;16.714;2022-09-17T15:05:15;2.78;;;1.15;;
18174;SDS011;9212;50.894;16.714;2022-09-17T15:07:44;2.05;;;1.50;;
18174;SDS011;9212;50.894;16.714;2022-09-17T15:10:12;1.83;;;1.25;;
18174;SDS011;9212;50.894;16.714;2022-09-17T15:12:43;3.75;;;1.25;;
18174;SDS011;9212;50.894;16.714;2022-09-17T15:15:14;3.08;;;1.30;;
18174;SDS011;9212;50.894;16.714;2022-09-17T15:17:44;1.88;;;1.50;;
18174;SDS011;9212;50.894;16.714;2022-09-17T15:20:14;4.53;;;1.90;;
18174;SDS011;9212;50.894;16.714;2022-09-17T15:22:44;2.30;;;1.52;;
18174;SDS011;9212;50.894;16.714;2022-09-17T15:25:17;2.47;;;1.38;;
18174;SDS011;9212;50.894;16.714;2022-09-17T15:27:49;1.90;;;1.15;;
18174;SDS011;9212;50.894;16.714;2022-09-17T15:30:18;3.50;;;1.43;;
18174;SDS011;9212;50.894;16.714;2022-09-17T15:32:47;3.60;;;1.90;;
18174;SDS011;9212;50.894;16.714;2022-09-17T15:35:16;2.43;;;1.50;;
18174;SDS011;9212;50.894;16.714;2022-09-17T15:37:48;2.80;;;1.80;;
18174;SDS011;9212;50.894;16.714;2022-09-17T15:40:22;2.17;;;1.50;;
18174;SDS011;9212;50.894;16.714;2022-09-17T15:42:54;2.07;;;1.87;;
18174;SDS011;9212;50.894;16.714;2022-09-17T15:45:27;1.50;;;1.40;;
18174;SDS011;9212;50.894;16.714;2022-09-17T15:47:56;2.97;;;1.67;;
18174;SDS011;9212;50.894;16.714;2022-09-17T15:50:23;1.80;;;1.20;;
18174;SDS011;9212;50.894;16.714;2022-09-17T15:52:57;3.73;;;1.63;;
18174;SDS011;9212;50.894;16.714;2022-09-17T15:55:37;2.57;;;1.30;;
18174;SDS011;9212;50.894;16.714;2022-09-17T15:58:19;4.23;;;1.60;;
18174;SDS011;9212;50.894;16.714;2022-09-17T16:00:51;2.50;;;1.80;;
18174;SDS011;9212;50.894;16.714;2022-09-17T16:06:55;7.37;;;2.40;;